Archival Weather

Heathrow

London, United Kingdom (EGLL)

Report from: Thursday, September 21, 2023 8:50 AM BST
Current time: Sunday, July 14, 2024 12:28 PM BST

Current weather – Weather history – Daily summaries
Weather forecast

Temperature13.0°C (55.4°F)
Dew point11.0°C (51.8°F)
Winds 3 kts (1.5 m/s, 3.5 mph) Vrb
Winds variableWinds variable from South-Southeast (150°) to West (260°)
Visibility6.2 mi. (10 km)
Clouds Sky clear
Altimeter29.41 in.Hg (996 mB)
Relative humidity88 %
Density altitude536 ft. (163 m)
Remarks Fully automated report
Corrected report
No clouds detected
No significant changes expected in the next two hours
Flight conditions Visual Meteorological Conditions
Raw dataCOR EGLL 210750Z AUTO 20003KT 150V260 9999 NCD 13/11 Q0996 NOSIG
An error has occurred. This application may no longer respond until reloaded. Reload 🗙